Time;durP1;ratioP1;P1;durP2;ratioP2;P2;SDS_P1;SDS_P2;PMS_P1;PMS_P2;Temp;Humidity;BMP_temperature;BMP_pressure;BME280_temperature;BME280_humidity;BME280_pressure;Samples;Min_cycle;Max_cycle;Signal;HPM_P1;HPM_P2
2022/12/06 00:01:45;;;;;;;39.23;25.67;;;0.50;99.90;;;;;;5033488;28;20229;-67
2022/12/06 00:04:13;;;;;;;35.83;24.97;;;0.50;99.90;;;;;;5032694;28;20640;-66
2022/12/06 00:06:48;;;;;;;34.63;23.93;;;0.60;99.90;;;;;;5033192;28;20194;-67
2022/12/06 00:09:25;;;;;;;32.07;23.33;;;0.60;99.90;;;;;;5033031;28;20229;-67
2022/12/06 00:11:51;;;;;;;37.60;23.77;;;0.50;99.90;;;;;;5033690;28;20610;-67
2022/12/06 00:14:17;;;;;;;34.17;23.03;;;0.50;99.90;;;;;;5033080;28;20535;-67
2022/12/06 00:16:43;;;;;;;35.67;23.83;;;0.50;99.90;;;;;;5033261;28;20176;-67
2022/12/06 00:19:12;;;;;;;33.20;23.43;;;0.50;99.90;;;;;;5033226;28;20175;-67
2022/12/06 00:21:38;;;;;;;35.73;24.17;;;0.60;99.90;;;;;;5033686;28;20546;-67
2022/12/06 00:24:07;;;;;;;30.07;22.93;;;0.60;99.90;;;;;;5033124;28;20294;-67
2022/12/06 00:26:37;;;;;;;35.87;23.03;;;0.60;99.90;;;;;;5015926;28;20195;-67
2022/12/06 00:29:04;;;;;;;32.73;23.07;;;0.60;99.90;;;;;;5033748;28;20242;-67
2022/12/06 00:31:31;;;;;;;35.10;23.67;;;0.60;99.90;;;;;;5033345;28;20221;-67
2022/12/06 00:33:57;;;;;;;31.83;22.57;;;0.60;99.90;;;;;;5033133;28;20163;-66
2022/12/06 00:36:25;;;;;;;36.33;24.37;;;0.60;99.90;;;;;;5032934;28;20195;-66
2022/12/06 00:38:51;;;;;;;34.43;23.40;;;0.60;99.90;;;;;;5032881;28;20191;-66
2022/12/06 00:41:22;;;;;;;36.80;23.77;;;0.60;99.90;;;;;;5032948;28;20221;-66
2022/12/06 00:43:49;;;;;;;31.77;22.53;;;0.60;99.90;;;;;;5033296;28;20159;-66
2022/12/06 00:46:24;;;;;;;32.90;21.97;;;0.60;99.90;;;;;;5033417;28;20624;-66
2022/12/06 00:48:51;;;;;;;38.13;24.67;;;0.60;99.90;;;;;;5033205;28;20266;-66
2022/12/06 00:51:18;;;;;;;34.23;22.77;;;0.70;99.90;;;;;;5033114;28;20601;-66
2022/12/06 00:53:45;;;;;;;35.60;23.00;;;0.60;99.90;;;;;;5032736;28;20198;-66
2022/12/06 00:56:11;;;;;;;31.90;24.50;;;0.60;99.90;;;;;;5032843;28;20558;-66
2022/12/06 00:58:37;;;;;;;38.17;23.30;;;0.60;99.90;;;;;;5032841;28;20586;-66
2022/12/06 01:01:12;;;;;;;39.17;24.80;;;0.70;99.90;;;;;;5033123;28;20203;-66
2022/12/06 01:03:39;;;;;;;39.30;23.03;;;0.70;99.90;;;;;;5032672;28;20171;-66
2022/12/06 01:06:08;;;;;;;35.17;22.97;;;0.70;99.90;;;;;;5032836;28;20231;-66
2022/12/06 01:08:34;;;;;;;34.73;22.80;;;0.70;99.90;;;;;;5032531;28;20274;-66
2022/12/06 01:11:01;;;;;;;30.97;21.93;;;0.70;99.90;;;;;;5014964;28;20676;-66
2022/12/06 01:13:27;;;;;;;35.23;23.90;;;0.70;99.90;;;;;;5032571;28;20186;-66
2022/12/06 01:15:53;;;;;;;32.80;23.40;;;0.70;99.90;;;;;;5034782;28;20218;-66
2022/12/06 01:18:20;;;;;;;34.13;23.37;;;0.70;99.90;;;;;;5018520;28;20185;-66
2022/12/06 01:20:46;;;;;;;34.23;23.27;;;0.70;99.90;;;;;;5036094;28;20195;-66
2022/12/06 01:23:13;;;;;;;39.77;23.10;;;0.70;99.90;;;;;;5036169;28;20175;-66
2022/12/06 01:25:38;;;;;;;38.63;23.10;;;0.70;99.90;;;;;;5035973;28;20171;-66
2022/12/06 01:28:05;;;;;;;44.63;23.57;;;0.70;99.90;;;;;;5035904;28;20248;-66
2022/12/06 01:30:31;;;;;;;38.63;22.80;;;0.70;99.90;;;;;;5018163;28;20194;-66
2022/12/06 01:32:56;;;;;;;35.77;23.20;;;0.80;99.90;;;;;;5018163;28;20183;-66
2022/12/06 01:35:22;;;;;;;40.70;22.97;;;0.70;99.90;;;;;;5036173;28;20301;-66
2022/12/06 01:37:48;;;;;;;39.37;22.20;;;0.70;99.90;;;;;;5036110;28;20697;-66
2022/12/06 01:40:13;;;;;;;39.80;24.30;;;0.80;99.90;;;;;;5035710;28;20659;-66
2022/12/06 01:42:39;;;;;;;35.57;22.73;;;0.80;99.90;;;;;;5036388;28;20278;-66
2022/12/06 01:45:05;;;;;;;40.37;21.63;;;0.80;99.90;;;;;;5035760;28;20228;-66
2022/12/06 01:47:36;;;;;;;41.80;23.43;;;0.80;99.90;;;;;;5036287;28;20231;-66
2022/12/06 01:50:06;;;;;;;42.63;24.03;;;0.80;99.90;;;;;;5018004;28;20551;-66
2022/12/06 01:52:54;;;;;;;40.07;23.37;;;0.80;99.90;;;;;;5035611;28;20276;-66
2022/12/06 01:55:26;;;;;;;44.77;23.13;;;0.80;99.90;;;;;;5035500;28;20538;-66
2022/12/06 01:57:57;;;;;;;45.60;23.57;;;0.80;99.90;;;;;;5017861;28;20228;-66
2022/12/06 02:00:23;;;;;;;41.63;22.80;;;0.80;99.90;;;;;;5035343;28;20171;-67
2022/12/06 02:02:49;;;;;;;41.63;23.50;;;0.80;99.90;;;;;;5035322;28;20171;-66
2022/12/06 02:05:16;;;;;;;50.80;24.87;;;0.80;99.90;;;;;;5035281;28;20706;-66
2022/12/06 02:07:43;;;;;;;38.63;22.47;;;0.80;99.90;;;;;;5035313;28;20172;-66
2022/12/06 02:10:09;;;;;;;47.97;24.13;;;0.80;99.90;;;;;;5035219;28;20229;-66
2022/12/06 02:12:35;;;;;;;47.00;25.27;;;0.80;99.90;;;;;;5017487;28;20206;-66
2022/12/06 02:15:01;;;;;;;46.77;23.10;;;0.80;99.90;;;;;;5035701;28;20210;-66
2022/12/06 02:17:39;;;;;;;53.30;25.97;;;0.90;99.90;;;;;;5035179;28;20171;-66
2022/12/06 02:20:33;;;;;;;46.60;23.47;;;0.90;99.90;;;;;;5035263;28;20164;-66
2022/12/06 02:23:20;;;;;;;38.53;21.70;;;0.90;99.90;;;;;;5027852;28;20262;-66
2022/12/06 02:26:27;;;;;;;52.40;25.77;;;0.90;99.90;;;;;;5017181;28;20249;-66
2022/12/06 02:29:17;;;;;;;47.30;24.53;;;0.90;99.90;;;;;;5015497;28;20219;-66
2022/12/06 02:32:04;;;;;;;52.77;25.20;;;0.90;99.90;;;;;;4997486;28;20668;-66
2022/12/06 02:34:46;;;;;;;53.50;26.93;;;0.90;99.90;;;;;;4997431;28;20207;-66
2022/12/06 02:37:33;;;;;;;50.50;25.27;;;0.90;99.90;;;;;;5015339;28;20237;-66
2022/12/06 02:40:18;;;;;;;58.80;27.47;;;0.90;99.90;;;;;;5014864;28;20187;-66
2022/12/06 02:42:50;;;;;;;52.03;25.27;;;0.90;99.90;;;;;;5014905;28;20196;-66
2022/12/06 02:45:20;;;;;;;55.60;27.27;;;0.90;99.90;;;;;;5015223;28;20169;-66
2022/12/06 02:47:48;;;;;;;59.27;26.93;;;0.90;99.90;;;;;;5014844;28;20210;-66
2022/12/06 02:50:19;;;;;;;57.17;26.60;;;1.00;99.90;;;;;;5015287;28;20222;-66
2022/12/06 02:52:50;;;;;;;56.90;25.47;;;1.00;99.90;;;;;;5014991;28;20208;-66
2022/12/06 02:55:18;;;;;;;52.13;25.03;;;1.00;99.90;;;;;;5014532;28;20195;-66
2022/12/06 02:57:47;;;;;;;47.30;24.53;;;1.00;99.90;;;;;;5014980;28;20161;-66
2022/12/06 03:00:28;;;;;;;56.13;25.40;;;1.00;99.90;;;;;;5014558;28;20176;-66
2022/12/06 03:03:22;;;;;;;59.73;26.40;;;1.00;99.90;;;;;;5014880;28;20176;-66
2022/12/06 03:06:08;;;;;;;63.70;27.43;;;1.00;99.90;;;;;;5013234;28;20230;-68
2022/12/06 03:08:55;;;;;;;62.47;26.93;;;1.00;99.90;;;;;;5013970;28;20691;-67
2022/12/06 03:11:24;;;;;;;56.87;24.23;;;1.00;99.90;;;;;;5014712;28;20223;-66
2022/12/06 03:13:53;;;;;;;56.47;27.50;;;1.00;99.90;;;;;;5014401;28;20183;-66
2022/12/06 03:16:21;;;;;;;55.40;27.00;;;1.00;99.90;;;;;;4996764;28;20250;-66
2022/12/06 03:18:59;;;;;;;58.33;26.50;;;1.10;99.90;;;;;;5014372;28;20221;-66
2022/12/06 03:21:33;;;;;;;47.23;25.77;;;1.10;99.90;;;;;;4996581;28;20242;-66
2022/12/06 03:24:00;;;;;;;59.93;28.40;;;1.10;99.90;;;;;;5014321;28;20234;-66
2022/12/06 03:26:30;;;;;;;52.63;26.20;;;1.10;99.90;;;;;;5015906;28;20183;-67
2022/12/06 03:28:59;;;;;;;59.80;25.03;;;1.10;99.90;;;;;;5033876;28;20160;-66
2022/12/06 03:31:27;;;;;;;56.23;25.93;;;1.10;99.90;;;;;;5016066;28;20230;-66
2022/12/06 03:34:09;;;;;;;51.00;25.27;;;1.10;99.90;;;;;;5034143;28;20175;-66
2022/12/06 03:36:37;;;;;;;55.90;25.43;;;1.10;99.90;;;;;;5034009;28;20270;-66
2022/12/06 03:39:06;;;;;;;59.53;26.93;;;1.10;99.90;;;;;;5033241;28;20179;-66
2022/12/06 03:41:44;;;;;;;60.10;26.30;;;1.10;99.90;;;;;;5015911;28;20194;-66
2022/12/06 03:44:10;;;;;;;62.47;28.23;;;1.10;99.90;;;;;;5033697;28;20159;-66
2022/12/06 03:46:40;;;;;;;61.43;28.77;;;1.10;99.90;;;;;;5033567;28;20182;-66
2022/12/06 03:49:14;;;;;;;58.47;27.23;;;1.10;99.90;;;;;;5033713;28;20186;-66
2022/12/06 03:51:42;;;;;;;57.37;26.67;;;1.10;99.90;;;;;;5033553;28;20610;-66
2022/12/06 03:54:09;;;;;;;60.50;27.30;;;1.10;99.90;;;;;;5033571;28;20170;-66
2022/12/06 03:56:36;;;;;;;55.10;26.93;;;1.10;99.90;;;;;;5033341;28;20205;-66
2022/12/06 03:59:06;;;;;;;57.60;27.23;;;1.10;99.90;;;;;;5033490;28;20174;-66
2022/12/06 04:01:33;;;;;;;63.33;27.27;;;1.10;99.90;;;;;;5033291;28;20664;-66
2022/12/06 04:03:59;;;;;;;63.63;27.13;;;1.10;99.90;;;;;;5015676;28;20236;-66
2022/12/06 04:06:25;;;;;;;61.87;27.87;;;1.10;99.90;;;;;;5033578;28;20703;-66
2022/12/06 04:08:50;;;;;;;60.60;28.57;;;1.10;99.90;;;;;;5033350;28;20668;-66
2022/12/06 04:11:16;;;;;;;70.67;27.00;;;1.10;99.90;;;;;;5015532;28;20215;-66
2022/12/06 04:13:42;;;;;;;62.40;28.43;;;1.10;99.90;;;;;;5033263;28;20182;-66
2022/12/06 04:18:53;;;;;;;60.23;27.37;;;1.20;99.90;;;;;;5033914;28;20177;-66
2022/12/06 04:23:58;;;;;;;65.90;27.40;;;1.20;99.90;;;;;;5033052;28;20558;-65
2022/12/06 04:26:24;;;;;;;55.27;27.57;;;1.20;99.90;;;;;;5033097;28;20278;-66
2022/12/06 04:39:51;;;;;;;64.33;30.20;;;1.10;99.90;;;;;;5033195;28;20556;-66
2022/12/06 04:45:02;;;;;;;80.73;29.17;;;1.20;99.90;;;;;;5033080;28;20166;-66
2022/12/06 04:47:28;;;;;;;71.47;30.00;;;1.10;99.90;;;;;;5032815;28;20195;-66
2022/12/06 04:49:54;;;;;;;64.80;29.07;;;1.20;99.90;;;;;;5033555;28;20183;-66
2022/12/06 04:52:20;;;;;;;69.33;30.53;;;1.20;99.90;;;;;;5019143;28;20199;-65
2022/12/06 04:54:46;;;;;;;74.03;27.93;;;1.20;99.90;;;;;;5036831;28;20187;-66
2022/12/06 04:57:13;;;;;;;79.23;29.03;;;1.20;99.90;;;;;;5037121;28;20254;-66
2022/12/06 04:59:41;;;;;;;69.03;27.27;;;1.30;99.90;;;;;;5019022;28;20175;-65
2022/12/06 05:02:10;;;;;;;80.10;29.07;;;1.20;99.90;;;;;;5018870;28;20203;-66
2022/12/06 05:04:35;;;;;;;100.13;31.20;;;1.20;99.90;;;;;;5018844;28;20183;-65
2022/12/06 05:07:01;;;;;;;72.90;27.57;;;1.20;99.90;;;;;;5036611;28;20540;-65
2022/12/06 05:09:27;;;;;;;72.47;30.00;;;1.20;99.90;;;;;;5036363;28;20186;-65
2022/12/06 05:11:53;;;;;;;80.33;31.97;;;1.20;99.90;;;;;;5036365;28;20199;-65
2022/12/06 05:14:19;;;;;;;80.97;29.60;;;1.10;99.90;;;;;;5018615;28;20176;-65
2022/12/06 05:16:45;;;;;;;83.87;31.40;;;1.10;99.90;;;;;;5036728;28;20179;-65
2022/12/06 05:19:14;;;;;;;63.97;27.17;;;1.20;99.90;;;;;;5036581;28;20303;-65
2022/12/06 05:21:39;;;;;;;61.27;27.13;;;1.20;99.90;;;;;;5036326;28;20191;-65
2022/12/06 05:24:06;;;;;;;67.53;29.47;;;1.20;99.90;;;;;;5036417;28;20180;-65
2022/12/06 05:26:32;;;;;;;85.03;30.67;;;1.20;99.90;;;;;;5036114;28;20252;-65
2022/12/06 05:28:58;;;;;;;77.30;29.17;;;1.20;99.90;;;;;;5036123;28;20159;-65
2022/12/06 05:31:25;;;;;;;79.17;27.37;;;1.20;99.90;;;;;;5018450;28;20207;-65
2022/12/06 05:33:52;;;;;;;95.23;30.30;;;1.20;99.90;;;;;;5018368;28;20206;-65
2022/12/06 05:36:23;;;;;;;83.80;28.87;;;1.20;99.90;;;;;;5018252;28;20702;-65
2022/12/06 05:38:50;;;;;;;101.37;30.43;;;1.20;99.90;;;;;;5036294;28;20211;-66
2022/12/06 05:41:16;;;;;;;84.33;29.27;;;1.30;99.90;;;;;;5036093;28;20253;-65
2022/12/06 05:43:42;;;;;;;86.27;31.23;;;1.30;99.90;;;;;;5036336;28;20175;-65
2022/12/06 05:46:08;;;;;;;78.17;29.07;;;1.30;99.90;;;;;;5018093;28;20190;-65
2022/12/06 05:48:34;;;;;;;76.47;29.73;;;1.30;99.90;;;;;;5017928;28;20642;-65
2022/12/06 05:51:00;;;;;;;83.50;31.03;;;1.30;99.90;;;;;;5035572;28;20199;-66
2022/12/06 05:53:26;;;;;;;103.63;34.07;;;1.30;99.90;;;;;;5035637;28;20175;-66
2022/12/06 05:55:52;;;;;;;178.73;42.87;;;1.30;99.90;;;;;;5035375;28;20206;-65
2022/12/06 05:58:18;;;;;;;124.13;37.27;;;1.30;99.90;;;;;;5035626;28;20178;-65
2022/12/06 06:00:50;;;;;;;114.40;37.07;;;1.40;99.90;;;;;;5035418;28;20560;-66
2022/12/06 06:03:16;;;;;;;146.33;40.77;;;1.40;99.90;;;;;;5016869;28;20273;-65
2022/12/06 06:05:47;;;;;;;132.47;38.10;;;1.30;99.90;;;;;;5017625;28;20183;-65
2022/12/06 06:08:13;;;;;;;128.00;36.63;;;1.30;99.90;;;;;;5017491;28;20270;-65
2022/12/06 06:10:39;;;;;;;125.63;38.07;;;1.30;99.90;;;;;;5035176;28;20603;-65
2022/12/06 06:13:04;;;;;;;78.17;31.70;;;1.30;99.90;;;;;;5035413;28;20548;-65
2022/12/06 06:15:30;;;;;;;78.17;31.67;;;1.30;99.90;;;;;;5036344;28;20212;-65
2022/12/06 06:17:56;;;;;;;114.57;33.67;;;1.30;99.90;;;;;;5036103;28;20205;-65
2022/12/06 06:20:22;;;;;;;77.77;29.70;;;1.30;99.90;;;;;;5035668;28;20607;-65
2022/12/06 06:22:47;;;;;;;85.13;31.53;;;1.30;99.90;;;;;;5035638;28;20196;-65
2022/12/06 06:25:13;;;;;;;72.77;30.20;;;1.40;99.90;;;;;;5035043;28;20632;-65
2022/12/06 06:27:39;;;;;;;86.63;33.50;;;1.30;99.90;;;;;;5034356;28;20273;-65
2022/12/06 06:30:07;;;;;;;72.77;29.50;;;1.40;99.90;;;;;;5034314;28;20206;-65
2022/12/06 06:32:33;;;;;;;84.20;31.77;;;1.40;99.90;;;;;;5033757;28;20286;-65
2022/12/06 06:34:59;;;;;;;77.10;34.37;;;1.40;99.90;;;;;;5033876;28;20286;-65
2022/12/06 06:37:25;;;;;;;93.17;31.93;;;1.40;99.90;;;;;;5034042;28;20183;-65
2022/12/06 06:39:50;;;;;;;100.90;34.10;;;1.40;99.90;;;;;;5033630;28;20183;-65
2022/12/06 06:42:16;;;;;;;87.30;31.80;;;1.40;99.90;;;;;;5033732;28;20674;-65
2022/12/06 06:44:43;;;;;;;89.37;32.23;;;1.40;99.90;;;;;;5015987;28;20175;-65
2022/12/06 06:47:09;;;;;;;91.90;32.77;;;1.40;99.90;;;;;;5033980;28;20656;-65
2022/12/06 06:49:34;;;;;;;82.80;30.60;;;1.40;99.90;;;;;;5033711;28;20223;-65
2022/12/06 06:52:00;;;;;;;85.77;32.93;;;1.40;99.90;;;;;;5033962;28;20206;-65
2022/12/06 06:54:29;;;;;;;95.80;32.27;;;1.40;99.90;;;;;;5033469;28;20540;-65
2022/12/06 06:56:55;;;;;;;78.93;31.60;;;1.50;99.90;;;;;;5034471;28;20655;-65
2022/12/06 06:59:22;;;;;;;66.60;29.97;;;1.40;99.90;;;;;;5033557;28;20174;-65
2022/12/06 07:01:47;;;;;;;100.87;34.17;;;1.50;99.90;;;;;;5033569;28;20607;-65
2022/12/06 07:04:13;;;;;;;63.23;29.33;;;1.50;99.90;;;;;;5033459;28;20176;-65
2022/12/06 07:06:39;;;;;;;84.87;31.90;;;1.50;99.90;;;;;;5033478;28;20233;-65
2022/12/06 07:09:05;;;;;;;91.60;35.93;;;1.50;99.90;;;;;;5033468;28;20187;-67
2022/12/06 07:11:30;;;;;;;85.43;32.43;;;1.50;99.90;;;;;;5033317;28;20565;-68
2022/12/06 07:13:56;;;;;;;107.43;36.50;;;1.60;99.90;;;;;;5033126;28;20190;-68
2022/12/06 07:16:22;;;;;;;103.83;35.00;;;1.50;99.90;;;;;;5033153;28;20640;-68
2022/12/06 07:18:48;;;;;;;100.50;34.47;;;1.60;99.90;;;;;;5033069;28;20167;-68
2022/12/06 07:21:15;;;;;;;102.77;33.20;;;1.60;99.90;;;;;;5015198;28;20191;-68
2022/12/06 07:23:41;;;;;;;94.50;34.47;;;1.60;99.90;;;;;;5032995;28;20175;-68
2022/12/06 07:26:09;;;;;;;91.57;33.60;;;1.60;99.90;;;;;;5032929;28;20297;-68
2022/12/06 07:28:36;;;;;;;99.23;34.77;;;1.60;99.90;;;;;;4986705;28;1318616;-68
2022/12/06 07:31:10;;;;;;;82.03;31.97;;;1.60;99.90;;;;;;5033710;28;20545;-68
2022/12/06 07:33:36;;;;;;;85.47;33.60;;;1.60;99.90;;;;;;5033968;28;20184;-68
2022/12/06 07:36:03;;;;;;;94.63;33.10;;;1.60;99.90;;;;;;5033599;28;20230;-67
2022/12/06 07:38:29;;;;;;;89.43;34.27;;;1.60;99.90;;;;;;5032358;28;20631;-68
2022/12/06 07:40:59;;;;;;;99.50;37.33;;;1.70;99.90;;;;;;5033862;28;20278;-67
2022/12/06 07:46:10;;;;;;;104.17;33.60;;;1.70;99.90;;;;;;5034957;28;20178;-67
2022/12/06 07:48:36;;;;;;;100.23;34.30;;;1.70;99.90;;;;;;5032536;28;20636;-67
2022/12/06 07:51:05;;;;;;;124.13;36.93;;;1.70;99.90;;;;;;5034208;28;20256;-67
2022/12/06 07:53:31;;;;;;;87.00;32.70;;;1.70;99.90;;;;;;5033742;28;20191;-67
2022/12/06 07:55:57;;;;;;;92.93;32.37;;;1.70;99.90;;;;;;5033391;28;20234;-67
2022/12/06 07:58:22;;;;;;;113.37;35.00;;;1.70;99.90;;;;;;5033725;28;20174;-66
2022/12/06 08:00:48;;;;;;;108.23;34.57;;;1.70;99.90;;;;;;5033385;28;20199;-67
2022/12/06 08:03:14;;;;;;;101.97;33.50;;;1.70;99.90;;;;;;5033393;28;20186;-66
2022/12/06 08:05:39;;;;;;;103.87;35.13;;;1.70;99.90;;;;;;5033368;28;20214;-66
2022/12/06 08:08:06;;;;;;;90.00;33.77;;;1.70;99.90;;;;;;5032027;28;20183;-67
2022/12/06 08:10:32;;;;;;;99.17;35.33;;;1.70;99.90;;;;;;5031841;28;20179;-66
2022/12/06 08:12:57;;;;;;;116.00;37.73;;;1.70;99.90;;;;;;5033587;28;20233;-66
2022/12/06 08:15:23;;;;;;;108.20;35.37;;;1.70;99.90;;;;;;5033457;28;20203;-66
2022/12/06 08:17:49;;;;;;;123.07;37.33;;;1.70;99.90;;;;;;5033757;28;20171;-66
2022/12/06 08:20:14;;;;;;;112.10;36.77;;;1.70;99.90;;;;;;5033250;28;20190;-66
2022/12/06 08:22:40;;;;;;;123.97;38.10;;;1.80;99.90;;;;;;5033176;28;20652;-66
2022/12/06 08:25:06;;;;;;;112.80;37.40;;;1.70;99.90;;;;;;5034125;28;20245;-66
2022/12/06 08:27:32;;;;;;;101.13;36.10;;;1.80;99.90;;;;;;5037086;28;20251;-72
2022/12/06 08:29:58;;;;;;;100.20;34.50;;;1.80;99.90;;;;;;5019134;28;20636;-64
2022/12/06 08:32:23;;;;;;;116.53;36.40;;;1.80;99.90;;;;;;5036920;28;20199;-66
2022/12/06 08:34:49;;;;;;;116.03;37.83;;;1.80;99.90;;;;;;5037202;28;20643;-66
2022/12/06 08:37:15;;;;;;;105.30;34.60;;;1.80;99.90;;;;;;5037284;28;20183;-66
2022/12/06 08:39:40;;;;;;;105.83;35.70;;;1.80;99.90;;;;;;5036884;28;20186;-66
2022/12/06 08:42:07;;;;;;;100.07;35.50;;;1.90;99.90;;;;;;5037089;28;20256;-66
2022/12/06 08:44:33;;;;;;;151.50;39.70;;;1.90;99.90;;;;;;5036962;28;20214;-66
2022/12/06 08:47:00;;;;;;;105.77;36.47;;;1.90;99.90;;;;;;5036927;28;20179;-66
2022/12/06 08:49:28;;;;;;;101.47;33.67;;;1.90;99.90;;;;;;5036791;28;20171;-66
2022/12/06 08:51:54;;;;;;;122.70;36.93;;;1.90;99.90;;;;;;5037048;28;20191;-66
2022/12/06 08:54:23;;;;;;;116.43;35.60;;;2.00;99.90;;;;;;5036608;28;20183;-66
2022/12/06 08:56:49;;;;;;;125.07;36.03;;;2.00;99.90;;;;;;5036851;28;20203;-66
2022/12/06 08:59:15;;;;;;;114.17;35.47;;;2.00;99.90;;;;;;5036681;28;20183;-66
2022/12/06 09:01:42;;;;;;;79.40;30.80;;;2.00;99.90;;;;;;5018791;28;20199;-66
2022/12/06 09:04:11;;;;;;;103.30;36.03;;;2.10;99.90;;;;;;5036822;28;20595;-66
2022/12/06 09:06:39;;;;;;;107.83;36.97;;;2.10;99.90;;;;;;5018864;28;20178;-66
2022/12/06 09:09:06;;;;;;;104.23;36.33;;;2.10;99.90;;;;;;5036655;28;20603;-66
2022/12/06 09:11:32;;;;;;;108.80;35.10;;;2.10;99.90;;;;;;5036302;28;20198;-66
2022/12/06 09:13:58;;;;;;;107.73;35.87;;;2.10;99.90;;;;;;5036966;28;20175;-66
2022/12/06 09:16:24;;;;;;;117.77;37.73;;;2.10;99.90;;;;;;5036230;28;20203;-66
2022/12/06 09:18:50;;;;;;;93.97;34.27;;;2.10;99.90;;;;;;5018627;28;20185;-66
2022/12/06 09:21:22;;;;;;;96.33;32.80;;;2.10;99.90;;;;;;5036494;28;20199;-66
2022/12/06 09:23:48;;;;;;;92.80;32.73;;;2.10;99.90;;;;;;5018491;28;20698;-66
2022/12/06 09:26:14;;;;;;;98.30;35.17;;;2.20;99.90;;;;;;5036028;28;20211;-66
2022/12/06 09:28:43;;;;;;;110.17;36.83;;;2.20;99.90;;;;;;5018460;28;20218;-67
2022/12/06 09:31:09;;;;;;;103.50;36.87;;;2.20;99.90;;;;;;5018267;28;20198;-67
2022/12/06 09:33:37;;;;;;;100.43;37.83;;;2.20;99.90;;;;;;5036243;28;20189;-67
2022/12/06 09:36:14;;;;;;;117.73;42.33;;;2.20;99.90;;;;;;5035391;28;20218;-66
2022/12/06 09:38:43;;;;;;;121.27;42.23;;;2.20;99.90;;;;;;5035663;28;20179;-66
2022/12/06 09:41:22;;;;;;;125.83;42.60;;;2.20;99.90;;;;;;5035701;28;20198;-66
2022/12/06 09:44:24;;;;;;;114.47;39.90;;;2.20;99.90;;;;;;5035854;28;20168;-66
2022/12/06 09:47:02;;;;;;;144.37;43.23;;;2.20;99.90;;;;;;5036338;28;20571;-66
2022/12/06 09:49:35;;;;;;;128.53;40.43;;;2.30;99.90;;;;;;5035771;28;20205;-66
2022/12/06 09:52:23;;;;;;;122.70;40.33;;;2.30;99.90;;;;;;5035739;28;20195;-66
2022/12/06 09:55:07;;;;;;;124.00;40.37;;;2.30;99.90;;;;;;5035564;28;20166;-66
2022/12/06 09:57:54;;;;;;;93.10;35.97;;;2.30;99.90;;;;;;5035700;28;20159;-66
2022/12/06 10:00:21;;;;;;;124.23;41.53;;;2.40;99.90;;;;;;5035912;28;20624;-66
2022/12/06 10:03:38;;;;;;;121.77;40.73;;;2.40;99.90;;;;;;5035239;28;20235;-66
2022/12/06 10:06:10;;;;;;;109.40;40.57;;;2.40;99.90;;;;;;4958371;28;20793;-66
2022/12/06 10:09:05;;;;;;;123.10;41.63;;;2.50;99.90;;;;;;5016078;28;20195;-65
2022/12/06 10:11:36;;;;;;;113.20;42.13;;;2.50;99.90;;;;;;5035251;28;20218;-64
2022/12/06 10:14:17;;;;;;;130.80;42.90;;;2.50;99.90;;;;;;5035386;28;20723;-64
2022/12/06 10:17:00;;;;;;;118.30;38.53;;;2.50;99.90;;;;;;5035317;28;20190;-64
2022/12/06 10:20:13;;;;;;;106.33;38.80;;;2.60;99.90;;;;;;5035572;28;20175;-64
2022/12/06 10:22:56;;;;;;;114.87;37.73;;;2.60;99.90;;;;;;4977359;28;20585;-65
2022/12/06 10:25:41;;;;;;;104.83;39.10;;;2.60;99.90;;;;;;5031212;28;20183;-65
2022/12/06 10:28:14;;;;;;;105.23;38.30;;;2.70;99.90;;;;;;5035809;28;20195;-66
2022/12/06 10:31:06;;;;;;;96.03;37.90;;;2.80;99.90;;;;;;5035231;28;20175;-66
2022/12/06 10:33:54;;;;;;;108.33;37.27;;;2.80;99.90;;;;;;5035099;28;20629;-66
2022/12/06 10:36:35;;;;;;;112.87;39.37;;;2.90;99.90;;;;;;5035405;28;20270;-66
2022/12/06 10:39:17;;;;;;;106.47;38.33;;;2.90;99.90;;;;;;5035124;28;20261;-64
2022/12/06 10:41:56;;;;;;;102.97;42.43;;;2.90;99.90;;;;;;5034637;28;20281;-65
2022/12/06 10:44:46;;;;;;;103.07;46.10;;;3.00;99.90;;;;;;5034787;28;20187;-64
2022/12/06 10:47:23;;;;;;;94.70;43.47;;;3.10;99.90;;;;;;5035217;28;20173;-65
2022/12/06 10:49:58;;;;;;;86.77;35.73;;;3.10;99.90;;;;;;5034468;28;20195;-66
2022/12/06 10:52:37;;;;;;;84.17;32.60;;;3.10;99.90;;;;;;5034550;28;20186;-65
2022/12/06 10:55:30;;;;;;;79.77;34.73;;;3.20;99.90;;;;;;5034557;28;20183;-67
2022/12/06 10:58:31;;;;;;;83.03;34.70;;;3.20;99.90;;;;;;5034807;28;20202;-67
2022/12/06 11:01:11;;;;;;;76.50;31.23;;;3.30;99.90;;;;;;5034752;28;20659;-67
2022/12/06 11:03:44;;;;;;;78.57;33.20;;;3.40;99.90;;;;;;5034892;28;20575;-67
2022/12/06 11:06:33;;;;;;;76.70;30.00;;;3.40;99.90;;;;;;5034380;28;20167;-67
2022/12/06 11:09:24;;;;;;;73.20;30.73;;;3.40;99.90;;;;;;5034229;28;20189;-67
2022/12/06 11:11:51;;;;;;;74.07;30.80;;;3.30;99.90;;;;;;5034162;28;20678;-67
2022/12/06 11:14:31;;;;;;;75.37;31.67;;;3.30;99.90;;;;;;5034223;28;20179;-65
2022/12/06 11:17:22;;;;;;;80.90;32.03;;;3.40;99.90;;;;;;5034027;28;20244;-65
2022/12/06 11:20:09;;;;;;;63.97;29.70;;;3.40;99.90;;;;;;5034077;28;20152;-65
2022/12/06 11:22:53;;;;;;;74.60;30.03;;;3.40;99.90;;;;;;5034025;28;20194;-65
2022/12/06 11:25:35;;;;;;;65.13;29.67;;;3.30;99.90;;;;;;5034006;28;20163;-65
2022/12/06 11:28:20;;;;;;;60.87;28.63;;;3.30;99.90;;;;;;5033876;28;20189;-65
2022/12/06 11:30:46;;;;;;;65.50;29.40;;;3.30;99.90;;;;;;5016156;28;20253;-65
2022/12/06 11:33:12;;;;;;;62.50;27.00;;;3.30;99.90;;;;;;5033852;28;20171;-65
2022/12/06 11:35:38;;;;;;;70.27;29.33;;;3.30;99.90;;;;;;5033668;28;20202;-65
2022/12/06 11:38:06;;;;;;;68.07;28.83;;;3.40;99.90;;;;;;5033692;28;20182;-66
2022/12/06 11:40:36;;;;;;;63.17;28.63;;;3.40;99.90;;;;;;5033480;28;20178;-66
2022/12/06 11:43:06;;;;;;;59.37;29.50;;;3.40;99.90;;;;;;5033953;28;20171;-65
2022/12/06 11:45:35;;;;;;;59.40;27.97;;;3.40;99.90;;;;;;5033910;28;20175;-65
2022/12/06 11:48:12;;;;;;;57.07;26.53;;;3.50;99.90;;;;;;5033895;28;20194;-65
2022/12/06 11:50:37;;;;;;;59.80;30.03;;;3.50;99.90;;;;;;5033545;28;20170;-65
2022/12/06 11:53:24;;;;;;;69.53;33.50;;;3.60;99.90;;;;;;5016055;28;20547;-65
2022/12/06 11:55:53;;;;;;;72.10;32.43;;;3.60;99.90;;;;;;5033517;28;20190;-65
2022/12/06 11:58:25;;;;;;;72.37;35.07;;;3.60;99.90;;;;;;5033750;28;20217;-65
2022/12/06 12:01:05;;;;;;;59.77;30.03;;;3.60;99.90;;;;;;5032665;28;20282;-65
2022/12/06 12:03:34;;;;;;;55.37;27.30;;;3.60;99.90;;;;;;5033694;28;20169;-65
2022/12/06 12:06:27;;;;;;;55.03;27.83;;;3.60;99.90;;;;;;5033437;28;20199;-65
2022/12/06 12:09:00;;;;;;;64.00;27.93;;;3.60;99.90;;;;;;5033152;28;20202;-66
2022/12/06 12:11:31;;;;;;;59.63;27.23;;;3.60;99.90;;;;;;5033120;28;20230;-65
2022/12/06 12:14:22;;;;;;;55.70;27.93;;;3.60;99.90;;;;;;5033301;28;20167;-65
2022/12/06 12:16:50;;;;;;;51.23;25.90;;;3.60;99.90;;;;;;5033779;28;20198;-66
2022/12/06 12:19:35;;;;;;;39.23;23.57;;;3.70;99.90;;;;;;5015623;28;20186;-65
2022/12/06 12:22:33;;;;;;;64.80;29.83;;;3.80;99.90;;;;;;5033193;28;20567;-65
2022/12/06 12:25:19;;;;;;;73.57;29.70;;;3.80;99.90;;;;;;5033712;28;20592;-65
2022/12/06 12:28:02;;;;;;;71.97;30.13;;;3.80;99.90;;;;;;5022754;28;20234;-66
2022/12/06 12:30:33;;;;;;;66.80;30.37;;;3.80;99.90;;;;;;5034031;28;20163;-66
2022/12/06 12:33:05;;;;;;;80.27;33.00;;;3.80;99.90;;;;;;5034398;28;20670;-66
2022/12/06 12:35:32;;;;;;;66.77;30.47;;;3.80;99.90;;;;;;5034249;28;20206;-66
2022/12/06 12:38:02;;;;;;;67.70;31.87;;;3.70;99.90;;;;;;5033114;28;20671;-65
2022/12/06 12:40:35;;;;;;;60.33;28.40;;;3.70;99.90;;;;;;5013222;28;20164;-66
2022/12/06 12:43:11;;;;;;;73.37;29.47;;;3.80;99.90;;;;;;5013475;28;20164;-65
2022/12/06 12:46:12;;;;;;;63.93;28.93;;;3.80;99.90;;;;;;5013360;28;20313;-65
2022/12/06 12:48:40;;;;;;;61.90;27.93;;;3.70;99.90;;;;;;5013284;28;20179;-65
2022/12/06 12:51:19;;;;;;;48.97;25.73;;;3.70;99.90;;;;;;5013191;28;20246;-65
2022/12/06 12:53:45;;;;;;;51.83;25.93;;;3.70;99.90;;;;;;5013516;28;20175;-65
2022/12/06 12:56:14;;;;;;;57.57;25.03;;;3.70;99.90;;;;;;5013040;28;20199;-65
2022/12/06 12:58:41;;;;;;;45.67;22.13;;;3.70;99.90;;;;;;4995673;28;20195;-64
2022/12/06 13:01:36;;;;;;;40.13;22.73;;;3.70;99.90;;;;;;5013312;28;20203;-66
2022/12/06 13:04:31;;;;;;;43.23;22.67;;;3.70;99.90;;;;;;5005506;28;20183;-65
2022/12/06 13:07:10;;;;;;;42.30;22.27;;;3.70;99.90;;;;;;4999168;28;20684;-65
2022/12/06 13:09:54;;;;;;;43.13;21.43;;;3.60;99.90;;;;;;5026186;28;20183;-65
2022/12/06 13:12:37;;;;;;;42.77;21.67;;;3.60;99.90;;;;;;5017696;28;20585;-65
2022/12/06 13:15:17;;;;;;;42.50;21.30;;;3.60;99.90;;;;;;5036651;28;20191;-65
2022/12/06 13:17:58;;;;;;;40.33;22.87;;;3.60;99.90;;;;;;5018663;28;20179;-65